Time;durP1;ratioP1;P1;durP2;ratioP2;P2;SDS_P1;SDS_P2;PMS_P1;PMS_P2;Temp;Humidity;BMP_temperature;BMP_pressure;BME280_temperature;BME280_humidity;BME280_pressure;Samples;Min_cycle;Max_cycle;Signal;HPM_P1;HPM_P2
2022/02/02 00:00:26;;;;;;;20.60;4.03;;;6.00;99.90;;;;;;6217015;23;20152;-61
2022/02/02 00:02:57;;;;;;;20.67;3.78;;;6.00;99.90;;;;;;6217291;23;20145;-60
2022/02/02 00:08:14;;;;;;;23.38;4.28;;;5.90;99.90;;;;;;6217034;23;20207;-60
2022/02/02 00:13:38;;;;;;;18.90;3.47;;;5.90;99.90;;;;;;6217487;23;20136;-60
2022/02/02 00:16:39;;;;;;;13.55;3.40;;;5.90;99.90;;;;;;6217485;23;20133;-61
2022/02/02 00:19:14;;;;;;;19.25;3.75;;;5.80;99.90;;;;;;6216623;23;20153;-61
2022/02/02 00:21:45;;;;;;;14.27;3.33;;;5.80;99.90;;;;;;6217112;23;20172;-59
2022/02/02 00:26:55;;;;;;;14.75;3.38;;;5.80;99.90;;;;;;6217257;23;20129;-62
2022/02/02 00:29:24;;;;;;;17.50;3.95;;;5.80;99.90;;;;;;6217231;23;20145;-61
2022/02/02 00:31:59;;;;;;;13.85;3.17;;;5.80;99.90;;;;;;6217198;23;20156;-61
2022/02/02 00:34:27;;;;;;;20.15;4.03;;;5.80;99.90;;;;;;6216834;23;20557;-61
2022/02/02 00:36:57;;;;;;;20.77;3.53;;;5.80;99.90;;;;;;6217074;23;20199;-61
2022/02/02 00:39:24;;;;;;;19.92;3.95;;;5.80;99.90;;;;;;6217017;23;20203;-61
2022/02/02 00:41:50;;;;;;;16.23;3.30;;;5.80;99.90;;;;;;6217162;23;20169;-61
2022/02/02 00:44:18;;;;;;;23.88;3.25;;;5.80;99.90;;;;;;6216810;23;20538;-60
2022/02/02 00:46:44;;;;;;;12.07;2.97;;;5.80;99.90;;;;;;6216606;23;20137;-59
2022/02/02 00:49:10;;;;;;;21.48;4.03;;;5.80;99.90;;;;;;6216896;23;20145;-61
2022/02/02 00:54:03;;;;;;;12.98;2.85;;;5.80;99.90;;;;;;6216820;23;20211;-61
2022/02/02 00:56:28;;;;;;;23.13;4.38;;;5.80;99.90;;;;;;6216663;23;20169;-61
2022/02/02 00:58:54;;;;;;;18.50;3.58;;;5.80;99.90;;;;;;6216394;23;20161;-61
2022/02/02 01:01:20;;;;;;;17.10;3.58;;;5.80;99.90;;;;;;6216649;23;20165;-61
2022/02/02 01:03:45;;;;;;;20.20;3.88;;;5.70;99.90;;;;;;6216407;23;20446;-61
2022/02/02 01:06:14;;;;;;;15.85;3.55;;;5.70;99.90;;;;;;6216417;23;20576;-61
2022/02/02 01:08:52;;;;;;;13.63;3.90;;;5.70;99.90;;;;;;6217112;23;20156;-61
2022/02/02 01:17:16;;;;;;;17.60;3.35;;;5.70;99.90;;;;;;6216868;23;20424;-60
2022/02/02 01:19:41;;;;;;;22.75;3.60;;;5.70;99.90;;;;;;6216200;23;20148;-61
2022/02/02 01:30:02;;;;;;;16.77;3.75;;;5.60;99.90;;;;;;6216319;23;20259;-61
2022/02/02 01:32:28;;;;;;;19.27;3.55;;;5.60;99.90;;;;;;6215870;23;20555;-61
2022/02/02 01:34:54;;;;;;;17.75;3.58;;;5.60;99.90;;;;;;6216084;23;20212;-61
2022/02/02 01:37:20;;;;;;;20.55;3.38;;;5.60;99.90;;;;;;6216526;23;20157;-61
2022/02/02 01:39:52;;;;;;;25.05;4.20;;;5.60;99.90;;;;;;6216112;23;20160;-61
2022/02/02 01:42:19;;;;;;;13.73;3.25;;;5.60;99.90;;;;;;6216399;23;20172;-61
2022/02/02 01:44:56;;;;;;;18.83;3.88;;;5.60;99.90;;;;;;6216348;23;20149;-61
2022/02/02 01:47:29;;;;;;;15.57;4.38;;;5.60;99.90;;;;;;6216441;23;20125;-61
2022/02/02 01:53:44;;;;;;;24.80;4.43;;;5.60;99.90;;;;;;6213705;23;20148;-62
2022/02/02 01:55:42;;;;;;;18.92;4.63;;;5.60;99.90;;;;;;6198070;23;20215;-62
2022/02/02 01:58:24;;;;;;;21.35;3.78;;;5.60;99.90;;;;;;6213831;23;20180;-61
2022/02/02 02:00:49;;;;;;;28.85;3.80;;;5.60;99.90;;;;;;6213821;23;20246;-62
2022/02/02 02:03:15;;;;;;;13.80;3.50;;;5.60;99.90;;;;;;6213740;23;20541;-62
2022/02/02 02:05:40;;;;;;;19.48;4.05;;;5.60;99.90;;;;;;6213732;23;20145;-62
2022/02/02 02:08:06;;;;;;;17.85;3.67;;;5.60;99.90;;;;;;6214087;23;20145;-59
2022/02/02 02:10:31;;;;;;;16.92;4.47;;;5.60;99.90;;;;;;6188658;23;20238;-61
2022/02/02 02:13:03;;;;;;;23.50;4.63;;;5.60;99.90;;;;;;6213712;23;20210;-61
2022/02/02 02:15:31;;;;;;;20.67;3.85;;;5.70;99.90;;;;;;6213864;23;20622;-61
2022/02/02 02:17:58;;;;;;;26.75;4.03;;;5.70;99.90;;;;;;6213775;23;20553;-61
2022/02/02 02:20:24;;;;;;;17.55;3.95;;;5.70;99.90;;;;;;6213735;23;20191;-60
2022/02/02 02:22:49;;;;;;;15.80;3.42;;;5.60;99.90;;;;;;6213632;23;20185;-61
2022/02/02 02:25:23;;;;;;;18.08;3.78;;;5.60;99.90;;;;;;6213748;23;20179;-61
2022/02/02 02:27:50;;;;;;;23.92;4.47;;;5.60;99.90;;;;;;6214501;23;20155;-61
2022/02/02 02:30:41;;;;;;;17.85;3.85;;;5.60;99.90;;;;;;6216366;23;20141;-60
2022/02/02 02:57:38;;;;;;;20.85;3.50;;;5.60;99.90;;;;;;6218342;23;20144;-61
2022/02/02 03:00:33;;;;;;;13.75;3.08;;;5.60;99.90;;;;;;6217831;23;20246;-60
2022/02/02 03:13:48;;;;;;;28.17;3.47;;;5.60;99.90;;;;;;6217370;23;20177;-62
2022/02/02 03:29:42;;;;;;;17.35;3.25;;;5.30;99.90;;;;;;6217569;23;20502;-61
2022/02/02 03:30:36;;;;;;;12.80;3.03;;;5.10;99.90;;;;;;6217359;23;20204;-60
2022/02/02 03:34:39;;;;;;;11.02;2.88;;;5.10;99.90;;;;;;6217752;23;20133;-61
2022/02/02 03:49:48;;;;;;;15.30;3.22;;;5.10;99.90;;;;;;6217220;23;20537;-60
2022/02/02 03:55:00;;;;;;;13.73;3.33;;;5.10;99.90;;;;;;6216965;23;20145;-61
2022/02/02 03:57:34;;;;;;;6.40;1.98;;;5.10;99.90;;;;;;6217136;23;20424;-61
2022/02/02 04:00:22;;;;;;;11.10;3.22;;;5.00;99.90;;;;;;6216904;23;20152;-61
2022/02/02 04:05:27;;;;;;;16.38;2.67;;;4.90;99.90;;;;;;6217397;23;20225;-62
2022/02/02 04:08:06;;;;;;;5.90;1.52;;;4.90;99.90;;;;;;6217474;23;20428;-61
2022/02/02 04:10:31;;;;;;;9.85;2.28;;;4.90;99.90;;;;;;6217482;23;20128;-60
2022/02/02 04:37:44;;;;;;;19.38;2.60;;;5.10;99.90;;;;;;6216712;23;20239;-61
2022/02/02 04:56:49;;;;;;;10.95;1.83;;;5.20;99.90;;;;;;6216500;23;20433;-59
2022/02/02 04:59:23;;;;;;;12.73;2.60;;;5.20;99.90;;;;;;6216211;23;20282;-60
2022/02/02 05:05:06;;;;;;;10.82;2.97;;;5.20;99.90;;;;;;6216419;23;20437;-60
2022/02/02 05:07:32;;;;;;;14.43;3.03;;;5.20;99.90;;;;;;6216270;23;20153;-60
2022/02/02 05:10:16;;;;;;;14.60;2.42;;;5.20;99.90;;;;;;6217081;23;20129;-60
2022/02/02 05:15:59;;;;;;;14.50;3.22;;;5.20;99.90;;;;;;6216278;23;20158;-62
2022/02/02 05:43:28;;;;;;;12.85;2.47;;;5.30;99.90;;;;;;6183993;23;20233;-61
2022/02/02 05:53:37;;;;;;;11.48;1.90;;;5.30;99.90;;;;;;6183813;23;20161;-62
2022/02/02 05:56:04;;;;;;;12.23;2.50;;;5.30;99.90;;;;;;6208302;23;20149;-62
2022/02/02 05:58:31;;;;;;;11.32;2.05;;;5.30;99.90;;;;;;6216071;23;20581;-61
2022/02/02 06:00:58;;;;;;;10.63;2.58;;;5.30;99.90;;;;;;6216119;23;20148;-62
2022/02/02 06:03:31;;;;;;;11.18;2.05;;;5.30;99.90;;;;;;6216022;23;20176;-63
2022/02/02 06:05:57;;;;;;;11.50;3.28;;;5.30;99.90;;;;;;6214864;23;20615;-61
2022/02/02 06:08:24;;;;;;;11.73;2.17;;;5.30;99.90;;;;;;6216114;23;20137;-62
2022/02/02 06:10:50;;;;;;;13.27;2.50;;;5.30;99.90;;;;;;6216022;23;20585;-62
2022/02/02 06:13:16;;;;;;;12.07;2.15;;;5.30;99.90;;;;;;6216350;23;20413;-62
2022/02/02 06:15:42;;;;;;;13.02;2.35;;;5.30;99.90;;;;;;6215223;23;20488;-62
2022/02/02 06:18:08;;;;;;;11.57;1.90;;;5.30;99.90;;;;;;6215556;23;20141;-62
2022/02/02 06:20:34;;;;;;;10.10;1.80;;;5.30;99.90;;;;;;6217985;23;20171;-62
2022/02/02 06:23:15;;;;;;;13.98;2.03;;;5.30;99.90;;;;;;6217692;23;20169;-62
2022/02/02 06:25:48;;;;;;;13.32;3.28;;;5.30;99.90;;;;;;6218348;23;20137;-62
2022/02/02 06:28:21;;;;;;;13.60;2.25;;;5.30;99.90;;;;;;6217707;23;20216;-62
2022/02/02 06:30:57;;;;;;;11.85;2.65;;;5.30;99.90;;;;;;6217868;23;20526;-62
2022/02/02 06:33:34;;;;;;;11.07;2.67;;;5.30;99.90;;;;;;6218398;23;20133;-61
2022/02/02 06:36:01;;;;;;;10.93;2.53;;;5.30;99.90;;;;;;6218355;23;20140;-61
2022/02/02 06:38:28;;;;;;;10.23;2.22;;;5.30;99.90;;;;;;6217980;23;20149;-60
2022/02/02 06:40:56;;;;;;;20.70;2.78;;;5.30;99.90;;;;;;6217562;23;20156;-60
2022/02/02 06:43:22;;;;;;;13.63;2.75;;;5.30;99.90;;;;;;6217473;23;20141;-60
2022/02/02 06:45:49;;;;;;;13.10;2.63;;;5.30;99.90;;;;;;6217395;23;20232;-60
2022/02/02 06:48:14;;;;;;;11.20;2.30;;;5.30;99.90;;;;;;6217299;23;20676;-60
2022/02/02 06:50:44;;;;;;;13.43;2.60;;;5.30;99.90;;;;;;6217478;23;20148;-60
2022/02/02 06:53:29;;;;;;;11.95;2.17;;;5.30;99.90;;;;;;6217676;23;20160;-60
2022/02/02 06:56:32;;;;;;;11.07;2.22;;;5.30;99.90;;;;;;6217385;23;20125;-60
2022/02/02 06:59:14;;;;;;;10.18;2.25;;;5.30;99.90;;;;;;6217489;23;20178;-60
2022/02/02 07:01:54;;;;;;;14.48;2.42;;;5.30;99.90;;;;;;6217861;23;20189;-60
2022/02/02 07:10:08;;;;;;;11.40;2.20;;;5.30;99.90;;;;;;6217831;23;20203;-60
2022/02/02 07:13:09;;;;;;;15.35;2.75;;;5.30;99.90;;;;;;6217417;23;20558;-60
2022/02/02 07:21:00;;;;;;;18.17;3.60;;;5.20;99.90;;;;;;6217806;23;20141;-59
2022/02/02 07:34:17;;;;;;;23.23;2.78;;;5.20;99.90;;;;;;6217200;23;20441;-61
2022/02/02 07:36:44;;;;;;;14.70;2.80;;;5.20;99.90;;;;;;6217186;23;20534;-61
2022/02/02 07:39:12;;;;;;;13.43;3.03;;;5.20;99.90;;;;;;6216068;23;20530;-63
2022/02/02 07:41:43;;;;;;;16.20;3.35;;;5.20;99.90;;;;;;6217415;23;20226;-61
2022/02/02 07:44:17;;;;;;;13.57;2.10;;;5.20;99.90;;;;;;6217495;23;20213;-62
2022/02/02 07:46:48;;;;;;;13.88;2.75;;;5.20;99.90;;;;;;6217492;23;20530;-62
2022/02/02 07:49:18;;;;;;;14.77;2.97;;;5.20;99.90;;;;;;6217567;23;20145;-62
2022/02/02 07:51:46;;;;;;;11.52;2.35;;;5.20;99.90;;;;;;6216180;23;20149;-62
2022/02/02 07:54:20;;;;;;;13.50;2.53;;;5.20;99.90;;;;;;6217182;23;20440;-62
2022/02/02 07:56:47;;;;;;;14.23;2.80;;;5.20;99.90;;;;;;6217459;23;20130;-62
2022/02/02 07:59:26;;;;;;;17.52;3.08;;;5.20;99.90;;;;;;6216957;23;20183;-62
2022/02/02 08:01:53;;;;;;;16.05;2.72;;;5.20;99.90;;;;;;6217069;23;20619;-62
2022/02/02 08:04:21;;;;;;;14.88;2.63;;;5.20;99.90;;;;;;6217296;23;20153;-62
2022/02/02 08:06:53;;;;;;;12.98;2.80;;;5.20;99.90;;;;;;6217368;23;20151;-63
2022/02/02 08:09:37;;;;;;;16.33;3.13;;;5.20;99.90;;;;;;6217293;23;20133;-63
2022/02/02 08:12:03;;;;;;;12.43;2.70;;;5.20;99.90;;;;;;6216251;23;20133;-63
2022/02/02 08:14:31;;;;;;;19.15;2.95;;;5.20;99.90;;;;;;6216746;23;20230;-63
2022/02/02 08:16:56;;;;;;;15.50;2.92;;;5.20;99.90;;;;;;6217009;23;20153;-63
2022/02/02 08:19:22;;;;;;;11.82;2.60;;;5.20;99.90;;;;;;6216497;23;20171;-63
2022/02/02 08:21:48;;;;;;;15.73;2.38;;;5.20;99.90;;;;;;6217071;23;20476;-63
2022/02/02 08:24:14;;;;;;;15.75;2.85;;;5.20;99.90;;;;;;6217282;23;20152;-63
2022/02/02 08:26:40;;;;;;;12.77;2.40;;;5.20;99.90;;;;;;6217266;23;20144;-62
2022/02/02 08:29:08;;;;;;;8.48;2.53;;;5.20;99.90;;;;;;6216874;23;20549;-62
2022/02/02 08:31:34;;;;;;;16.90;2.45;;;5.20;99.90;;;;;;6217782;23;20145;-61
2022/02/02 08:34:02;;;;;;;14.25;2.20;;;5.20;99.90;;;;;;6217046;23;20156;-62
2022/02/02 08:36:28;;;;;;;14.68;2.47;;;5.30;99.90;;;;;;6216073;23;20156;-61
2022/02/02 08:40:10;;;;;;;11.95;2.47;;;5.30;99.90;;;;;;6216098;23;20148;-60
2022/02/02 08:41:54;;;;;;;11.90;3.00;;;5.30;99.90;;;;;;6215370;23;20177;-62
2022/02/02 08:44:24;;;;;;;11.35;2.78;;;5.30;99.90;;;;;;6216732;23;20129;-61
2022/02/02 08:47:01;;;;;;;10.98;2.15;;;5.30;99.90;;;;;;6216915;23;20164;-61
2022/02/02 08:49:29;;;;;;;14.25;2.65;;;5.30;99.90;;;;;;6216794;23;20474;-61
2022/02/02 08:51:55;;;;;;;19.50;2.72;;;5.20;99.90;;;;;;6216734;23;20172;-61
2022/02/02 08:57:17;;;;;;;4.80;1.25;;;5.20;99.90;;;;;;6216587;23;20176;-63
2022/02/02 09:02:13;;;;;;;6.20;1.42;;;5.20;99.90;;;;;;6216526;23;20177;-63
2022/02/02 09:07:23;;;;;;;7.18;1.23;;;5.20;99.90;;;;;;6216517;23;20132;-61
2022/02/02 09:09:56;;;;;;;6.95;1.60;;;5.20;99.90;;;;;;6216566;23;20453;-62
2022/02/02 09:34:03;;;;;;;3.72;0.90;;;4.80;99.90;;;;;;6216052;23;20168;-62
2022/02/02 09:36:30;;;;;;;1.38;0.43;;;4.70;99.90;;;;;;6216176;23;20122;-61
2022/02/02 09:38:58;;;;;;;4.22;0.90;;;4.70;99.90;;;;;;6215933;23;20203;-61
2022/02/02 09:43:55;;;;;;;1.88;0.85;;;4.60;99.90;;;;;;6216242;23;20152;-62
2022/02/02 09:46:26;;;;;;;2.13;0.85;;;4.50;99.90;;;;;;6216163;23;20553;-62
2022/02/02 09:48:56;;;;;;;2.85;0.73;;;4.40;99.90;;;;;;6216081;23;20200;-62
2022/02/02 09:51:30;;;;;;;3.58;0.65;;;4.30;99.90;;;;;;6216038;23;20565;-62
2022/02/02 09:54:07;;;;;;;4.50;0.80;;;;;;;;;;6217130;23;20447;-62
2022/02/02 09:59:25;;;;;;;2.53;0.73;;;3.90;99.90;;;;;;6217968;23;20599;-60
2022/02/02 10:05:10;;;;;;;0.77;0.43;;;3.90;99.90;;;;;;6218502;23;20208;-61
2022/02/02 10:10:33;;;;;;;3.00;0.55;;;3.90;99.90;;;;;;6218405;23;20556;-61
2022/02/02 10:13:47;;;;;;;1.45;0.55;;;4.00;99.90;;;;;;6217927;23;20526;-60
2022/02/02 10:16:20;;;;;;;2.10;0.43;;;4.00;99.90;;;;;;6217798;23;20156;-61
2022/02/02 10:18:46;;;;;;;4.00;0.70;;;4.10;99.90;;;;;;6218850;23;20129;-60
2022/02/02 10:21:12;;;;;;;3.60;0.68;;;4.20;99.90;;;;;;6218703;23;20202;-60
2022/02/02 10:23:39;;;;;;;2.33;0.55;;;4.20;99.90;;;;;;6217071;23;20516;-61
2022/02/02 10:26:21;;;;;;;0.88;0.30;;;4.30;99.90;;;;;;6218136;23;20206;-61
2022/02/02 10:28:49;;;;;;;3.13;0.65;;;4.30;99.90;;;;;;6217948;23;20564;-62
2022/02/02 10:31:14;;;;;;;2.40;0.57;;;4.30;99.90;;;;;;6217789;23;20228;-62
2022/02/02 10:33:40;;;;;;;1.58;0.80;;;4.40;99.90;;;;;;6217903;23;20235;-62
2022/02/02 10:36:20;;;;;;;3.33;0.93;;;4.40;99.90;;;;;;6217922;23;20445;-62
2022/02/02 10:39:19;;;;;;;2.78;0.52;;;4.50;99.90;;;;;;6217785;23;20604;-60
2022/02/02 10:41:45;;;;;;;3.53;0.80;;;4.60;99.90;;;;;;6217405;23;20648;-60
2022/02/02 10:44:33;;;;;;;3.60;0.85;;;4.70;99.90;;;;;;6218241;23;20151;-61
2022/02/02 10:47:25;;;;;;;5.38;0.70;;;4.80;99.90;;;;;;6218149;23;20125;-61
2022/02/02 10:50:02;;;;;;;4.05;0.73;;;4.70;99.90;;;;;;6217690;23;20482;-61
2022/02/02 10:53:16;;;;;;;3.13;0.43;;;4.70;99.90;;;;;;6217671;23;20561;-62
2022/02/02 10:55:59;;;;;;;0.93;0.40;;;4.60;99.90;;;;;;6215820;23;20153;-61
2022/02/02 10:58:41;;;;;;;3.13;0.60;;;4.50;99.90;;;;;;6217579;23;20133;-61
2022/02/02 11:09:02;;;;;;;2.42;0.95;;;4.50;99.90;;;;;;6217342;23;20140;-62
2022/02/02 11:11:28;;;;;;;1.13;0.40;;;4.20;99.90;;;;;;6217252;23;20231;-62
2022/02/02 11:14:01;;;;;;;0.85;0.50;;;4.00;99.90;;;;;;6217632;23;20444;-61
2022/02/02 11:16:30;;;;;;;1.38;0.50;;;3.80;99.90;;;;;;6216874;23;20136;-62
2022/02/02 11:18:58;;;;;;;2.03;0.50;;;3.70;99.90;;;;;;6216279;23;20180;-61
2022/02/02 11:21:31;;;;;;;3.58;0.68;;;3.70;99.90;;;;;;6216289;23;20169;-61
2022/02/02 11:23:57;;;;;;;1.08;0.60;;;3.80;99.90;;;;;;6217098;23;20163;-60
2022/02/02 11:26:45;;;;;;;1.77;0.55;;;3.80;99.90;;;;;;6217344;23;20156;-61
2022/02/02 11:29:38;;;;;;;2.90;0.65;;;3.90;99.90;;;;;;6217192;23;20612;-61
2022/02/02 11:32:05;;;;;;;1.50;0.57;;;4.00;99.90;;;;;;6217235;23;20572;-61
2022/02/02 11:34:31;;;;;;;1.45;0.77;;;4.10;99.90;;;;;;6217586;23;20160;-61
2022/02/02 11:36:57;;;;;;;2.63;0.90;;;4.20;99.90;;;;;;6217104;23;20482;-62
2022/02/02 11:39:58;;;;;;;5.07;0.77;;;4.30;99.90;;;;;;6217332;23;20448;-62
2022/02/02 11:42:50;;;;;;;1.75;0.65;;;4.40;99.90;;;;;;6217259;23;20548;-61
2022/02/02 11:45:45;;;;;;;2.60;0.88;;;4.40;99.90;;;;;;6217068;23;20132;-62
2022/02/02 11:48:20;;;;;;;6.33;0.80;;;4.50;99.90;;;;;;6217521;23;20370;-62
2022/02/02 11:50:55;;;;;;;2.55;0.75;;;4.50;99.90;;;;;;6217561;23;20140;-62
2022/02/02 11:53:50;;;;;;;2.50;0.77;;;4.40;99.90;;;;;;6217367;23;20497;-62
2022/02/02 11:56:16;;;;;;;1.25;0.70;;;4.40;99.90;;;;;;6216934;23;20153;-60
2022/02/02 11:58:43;;;;;;;1.20;0.80;;;4.40;99.90;;;;;;6217770;23;20430;-61
2022/02/02 12:01:18;;;;;;;2.72;0.80;;;4.40;99.90;;;;;;6216590;23;20134;-61
2022/02/02 12:04:05;;;;;;;4.47;0.73;;;4.50;99.90;;;;;;6216716;23;20125;-61
2022/02/02 12:09:10;;;;;;;3.55;0.75;;;4.60;99.90;;;;;;6217413;23;20136;-61
2022/02/02 12:57:47;;;;;;;0.98;0.60;;;4.90;99.90;;;;;;6216995;23;20191;-61
2022/02/02 13:00:35;;;;;;;3.25;0.93;;;4.90;99.90;;;;;;6216362;23;20530;-62
2022/02/02 13:03:01;;;;;;;2.55;0.90;;;4.90;99.90;;;;;;6216697;23;20232;-63
2022/02/02 13:05:28;;;;;;;2.05;0.60;;;4.90;99.90;;;;;;6217846;23;20165;-63
2022/02/02 13:07:56;;;;;;;1.65;0.70;;;4.90;99.90;;;;;;6216965;23;20574;-62
2022/02/02 13:10:26;;;;;;;2.38;0.70;;;4.90;99.90;;;;;;6216618;23;20201;-61
2022/02/02 13:13:05;;;;;;;4.72;1.00;;;4.90;99.90;;;;;;6216314;23;20544;-61
2022/02/02 13:15:48;;;;;;;3.05;0.77;;;4.90;99.90;;;;;;6216494;23;20133;-61
2022/02/02 13:18:29;;;;;;;3.53;0.80;;;4.90;99.90;;;;;;6216603;23;20215;-62
2022/02/02 13:21:09;;;;;;;1.45;0.65;;;5.00;99.90;;;;;;6216498;23;20195;-62
2022/02/02 13:26:43;;;;;;;1.65;0.70;;;5.20;99.90;;;;;;6216491;23;20194;-63
2022/02/02 13:32:00;;;;;;;4.10;0.88;;;5.30;99.90;;;;;;6216478;23;20182;-62
2022/02/02 13:34:54;;;;;;;3.22;0.80;;;5.20;99.90;;;;;;6216433;23;20144;-63
2022/02/02 13:43:00;;;;;;;3.15;0.80;;;5.10;99.90;;;;;;6216375;23;20183;-62
2022/02/02 13:50:54;;;;;;;3.58;0.80;;;5.10;99.90;;;;;;6216455;23;20141;-63
2022/02/02 13:56:18;;;;;;;3.47;0.60;;;5.00;99.90;;;;;;6215618;23;20135;-63
2022/02/02 14:01:29;;;;;;;1.65;0.70;;;4.90;99.90;;;;;;6216360;23;20174;-63
2022/02/02 14:04:19;;;;;;;3.05;0.70;;;4.80;99.90;;;;;;6216712;23;20141;-62
2022/02/02 14:31:23;;;;;;;2.72;0.80;;;4.90;99.90;;;;;;6215930;23;20143;-62
2022/02/02 14:33:52;;;;;;;6.43;1.58;;;4.90;99.90;;;;;;6216835;23;20144;-62
2022/02/02 14:36:21;;;;;;;4.28;0.95;;;4.90;99.90;;;;;;6216136;23;20145;-63
2022/02/02 14:39:07;;;;;;;4.15;0.90;;;4.90;99.90;;;;;;6216390;23;20145;-62
2022/02/02 14:44:12;;;;;;;4.15;0.75;;;4.90;99.90;;;;;;6218082;23;20172;-62
2022/02/02 14:46:44;;;;;;;5.57;0.93;;;4.90;99.90;;;;;;6218106;23;20267;-62
2022/02/02 14:49:28;;;;;;;6.60;0.95;;;4.80;99.90;;;;;;6217832;23;20121;-62
2022/02/02 14:54:42;;;;;;;4.40;0.80;;;4.80;99.90;;;;;;6218078;23;20172;-63
2022/02/02 15:27:19;;;;;;;2.83;1.10;;;4.70;99.90;;;;;;6217336;23;20140;-62
2022/02/02 15:32:17;;;;;;;5.93;1.27;;;4.60;99.90;;;;;;6217888;23;20147;-63
2022/02/02 15:34:56;;;;;;;5.13;0.90;;;4.60;99.90;;;;;;6217566;23;20149;-61
2022/02/02 15:37:29;;;;;;;1.88;1.00;;;4.60;99.90;;;;;;6217474;23;20129;-62
2022/02/02 15:40:03;;;;;;;4.57;1.40;;;4.60;99.90;;;;;;6217593;23;20148;-63
2022/02/02 15:57:03;;;;;;;3.60;1.23;;;4.50;99.90;;;;;;6217305;23;20163;-60
2022/02/02 15:59:03;;;;;;;1.45;0.70;;;4.50;99.90;;;;;;6216898;23;20168;-63
2022/02/02 16:03:57;;;;;;;7.38;1.52;;;4.50;99.90;;;;;;6217402;23;20172;-62
2022/02/02 16:06:25;;;;;;;9.50;1.52;;;4.50;99.90;;;;;;6220561;23;20145;-63
2022/02/02 16:09:00;;;;;;;8.05;1.63;;;4.50;99.90;;;;;;6220626;23;20212;-63
2022/02/02 16:11:30;;;;;;;9.13;1.52;;;4.50;99.90;;;;;;6217318;23;20140;-63
2022/02/02 16:14:04;;;;;;;7.60;1.83;;;4.50;99.90;;;;;;6217540;23;20159;-62
2022/02/02 16:19:02;;;;;;;8.82;1.60;;;4.40;99.90;;;;;;6217108;23;20519;-63
2022/02/02 16:32:57;;;;;;;5.53;1.27;;;4.50;99.90;;;;;;6216369;23;20140;-62
2022/02/02 16:35:34;;;;;;;7.25;1.80;;;4.40;99.90;;;;;;6217609;23;20236;-61
2022/02/02 16:38:01;;;;;;;7.57;1.33;;;4.40;99.90;;;;;;6217260;23;20137;-61
2022/02/02 16:40:35;;;;;;;7.18;2.22;;;4.40;99.90;;;;;;6217261;23;20148;-61
2022/02/02 16:43:14;;;;;;;11.20;1.75;;;4.30;99.90;;;;;;6217165;23;20491;-61
2022/02/02 16:45:46;;;;;;;7.80;1.38;;;4.30;99.90;;;;;;6216886;23;20530;-61
2022/02/02 16:48:11;;;;;;;10.18;1.30;;;4.20;99.90;;;;;;6216510;23;20137;-62
2022/02/02 16:50:41;;;;;;;12.15;1.90;;;4.20;99.90;;;;;;6216645;23;20141;-62
2022/02/02 16:53:14;;;;;;;11.02;2.47;;;4.30;99.90;;;;;;6216351;23;20220;-61
2022/02/02 16:55:49;;;;;;;8.65;1.80;;;4.30;99.90;;;;;;6216941;23;20195;-61
2022/02/02 17:24:18;;;;;;;11.18;1.45;;;4.30;99.90;;;;;;6216685;23;20144;-61
2022/02/02 17:27:13;;;;;;;3.50;1.20;;;4.40;99.90;;;;;;6216163;23;20139;-62
2022/02/02 17:29:37;;;;;;;4.38;1.33;;;4.50;99.90;;;;;;6215997;23;20148;-62
2022/02/02 17:31:26;;;;;;;8.07;1.20;;;4.50;99.90;;;;;;6216305;23;20561;-62
2022/02/02 17:34:00;;;;;;;6.25;1.05;;;4.50;99.90;;;;;;6216227;23;20124;-62
2022/02/02 17:36:40;;;;;;;5.60;1.17;;;4.50;99.90;;;;;;6216327;23;20136;-62
2022/02/02 17:39:10;;;;;;;3.58;1.13;;;4.50;99.90;;;;;;6216133;23;20391;-62
2022/02/02 18:01:21;;;;;;;6.15;1.42;;;4.50;99.90;;;;;;6183570;23;20177;-61
2022/02/02 18:18:09;;;;;;;6.47;1.02;;;4.40;99.90;;;;;;6218399;23;20136;-63
2022/02/02 18:19:57;;;;;;;5.88;1.17;;;4.40;99.90;;;;;;6217608;23;20145;-61
2022/02/02 18:22:28;;;;;;;6.07;1.10;;;4.50;99.90;;;;;;6218206;23;20165;-62
2022/02/02 18:25:36;;;;;;;7.90;1.23;;;4.40;99.90;;;;;;6218165;23;20129;-61
2022/02/02 18:28:01;;;;;;;8.05;0.98;;;4.40;99.90;;;;;;6216086;23;20491;-62
2022/02/02 18:35:42;;;;;;;6.70;1.17;;;4.30;99.90;;;;;;6218066;23;20476;-61
2022/02/02 18:39:25;;;;;;;6.85;1.27;;;4.30;99.90;;;;;;6217936;23;20137;-62
2022/02/02 18:46:31;;;;;;;9.15;1.30;;;4.10;99.90;;;;;;6217966;23;20544;-62
2022/02/02 18:49:09;;;;;;;3.88;1.17;;;4.10;99.90;;;;;;6217928;23;20191;-62
2022/02/02 18:52:02;;;;;;;5.10;1.23;;;4.00;99.90;;;;;;6217718;23;20499;-62
2022/02/02 18:54:40;;;;;;;5.45;0.98;;;4.00;99.90;;;;;;6217234;23;20236;-62
2022/02/02 18:57:33;;;;;;;5.38;0.90;;;3.90;99.90;;;;;;6217696;23;20197;-62
2022/02/02 19:14:46;;;;;;;10.63;1.60;;;3.80;99.90;;;;;;6188690;23;20169;-62
2022/02/02 19:38:55;;;;;;;8.27;1.48;;;3.70;99.90;;;;;;6217477;23;20279;-61
2022/02/02 20:05:16;;;;;;;16.55;1.90;;;3.50;99.90;;;;;;6217728;23;20236;-61
2022/02/02 20:07:52;;;;;;;8.50;1.30;;;3.50;99.90;;;;;;6217531;23;20133;-61
2022/02/02 20:12:46;;;;;;;8.23;1.73;;;3.50;99.90;;;;;;6217856;23;20164;-63
2022/02/02 20:15:13;;;;;;;7.18;1.63;;;3.50;99.90;;;;;;6217217;23;20141;-63
2022/02/02 20:17:39;;;;;;;5.22;1.23;;;3.40;99.90;;;;;;6217588;23;20149;-62
2022/02/02 20:20:17;;;;;;;10.32;1.52;;;3.40;99.90;;;;;;6217715;23;20209;-62
2022/02/02 20:22:44;;;;;;;5.10;1.45;;;3.40;99.90;;;;;;6217211;23;20164;-61
2022/02/02 20:25:11;;;;;;;10.32;1.67;;;3.40;99.90;;;;;;6217799;23;20141;-63
2022/02/02 20:27:37;;;;;;;8.43;1.50;;;3.30;99.90;;;;;;6218190;23;20232;-62
2022/02/02 20:30:06;;;;;;;7.55;1.55;;;3.30;99.90;;;;;;6218824;23;20568;-63
2022/02/02 20:32:31;;;;;;;7.47;1.55;;;3.30;99.90;;;;;;6216981;23;20234;-62
2022/02/02 20:34:56;;;;;;;7.82;1.50;;;3.30;99.90;;;;;;6217553;23;20148;-61
2022/02/02 20:37:22;;;;;;;9.88;1.83;;;3.30;99.90;;;;;;6216433;23;20619;-62
2022/02/02 20:40:00;;;;;;;9.45;1.58;;;3.30;99.90;;;;;;6216892;23;20147;-61
2022/02/02 20:42:34;;;;;;;3.38;1.45;;;3.30;99.90;;;;;;6216919;23;20173;-61
2022/02/02 20:45:29;;;;;;;6.93;1.77;;;3.20;99.90;;;;;;6217273;23;20139;-62
2022/02/02 21:04:22;;;;;;;8.30;1.48;;;3.30;99.90;;;;;;6216811;23;20470;-62
2022/02/02 21:07:06;;;;;;;9.90;1.70;;;3.30;99.90;;;;;;6216700;23;20158;-62
2022/02/02 21:14:37;;;;;;;8.02;1.40;;;3.20;99.90;;;;;;6216499;23;20145;-61
2022/02/02 21:17:05;;;;;;;7.93;2.15;;;3.20;99.90;;;;;;6216946;23;20144;-62
2022/02/02 21:19:39;;;;;;;12.32;2.05;;;3.20;99.90;;;;;;6216939;23;20503;-61
2022/02/02 21:22:06;;;;;;;12.63;1.90;;;3.20;99.90;;;;;;6216675;23;20251;-61
2022/02/02 21:24:47;;;;;;;6.57;1.33;;;3.10;99.90;;;;;;6217122;23;20149;-63
2022/02/02 21:29:38;;;;;;;7.35;1.63;;;3.00;99.90;;;;;;6216391;23;20145;-62
2022/02/02 21:32:05;;;;;;;9.75;1.50;;;3.00;99.90;;;;;;6216170;23;20220;-62
2022/02/02 21:34:31;;;;;;;12.90;2.05;;;3.00;99.90;;;;;;6216738;23;20145;-62
2022/02/02 21:37:01;;;;;;;7.30;1.52;;;3.00;99.90;;;;;;6216486;23;20235;-61
2022/02/02 21:39:29;;;;;;;8.88;1.88;;;3.00;99.90;;;;;;6217016;23;20212;-61
2022/02/02 21:41:55;;;;;;;11.93;1.83;;;3.00;99.90;;;;;;6216087;23;20165;-61
2022/02/02 21:44:21;;;;;;;10.60;2.25;;;2.90;99.90;;;;;;6217108;23;20141;-63
2022/02/02 21:46:47;;;;;;;7.28;1.90;;;2.90;99.90;;;;;;6216083;23;20235;-62
2022/02/02 21:49:19;;;;;;;9.30;1.65;;;2.90;99.90;;;;;;6216821;23;20228;-63
2022/02/02 21:52:00;;;;;;;6.22;1.30;;;2.90;99.90;;;;;;6216689;23;20144;-63
2022/02/02 21:54:26;;;;;;;7.30;1.95;;;2.90;99.90;;;;;;6216319;23;20204;-62
2022/02/02 21:56:51;;;;;;;11.23;1.50;;;2.80;99.90;;;;;;6216623;23;20183;-62
2022/02/02 21:59:17;;;;;;;9.52;2.30;;;2.80;99.90;;;;;;6216346;23;20175;-62
2022/02/02 22:01:43;;;;;;;6.50;1.60;;;2.80;99.90;;;;;;6216624;23;20230;-62
2022/02/02 22:04:09;;;;;;;6.30;1.70;;;2.80;99.90;;;;;;6216703;23;20141;-62
2022/02/02 22:06:34;;;;;;;5.70;1.83;;;2.80;99.90;;;;;;6216328;23;20534;-62
2022/02/02 22:09:00;;;;;;;9.57;1.75;;;2.80;99.90;;;;;;6216276;23;20442;-61
2022/02/02 22:11:25;;;;;;;9.27;2.15;;;2.80;99.90;;;;;;6216110;23;20142;-63
2022/02/02 22:14:25;;;;;;;9.52;2.35;;;2.80;99.90;;;;;;6216396;23;20145;-61
2022/02/02 22:16:45;;;;;;;14.52;2.40;;;2.90;99.90;;;;;;6216039;23;20145;-62
2022/02/02 22:19:10;;;;;;;12.20;1.83;;;2.90;99.90;;;;;;6216644;23;20153;-62
2022/02/02 22:21:36;;;;;;;11.65;1.75;;;2.90;99.90;;;;;;6215962;23;20638;-62
2022/02/02 22:24:02;;;;;;;8.30;1.75;;;3.00;99.90;;;;;;6216563;23;20149;-62
2022/02/02 22:26:28;;;;;;;12.63;1.60;;;3.00;99.90;;;;;;6216502;23;20145;-63
2022/02/02 22:28:54;;;;;;;11.43;1.77;;;3.10;99.90;;;;;;6215871;23;20431;-62
2022/02/02 22:31:20;;;;;;;6.53;1.77;;;3.10;99.90;;;;;;6216275;23;20490;-63
2022/02/02 22:33:45;;;;;;;8.43;1.67;;;3.20;99.90;;;;;;6216012;23;20144;-63
2022/02/02 22:36:11;;;;;;;10.10;1.90;;;3.20;99.90;;;;;;6216428;23;20137;-63
2022/02/02 22:38:36;;;;;;;12.55;2.45;;;3.30;99.90;;;;;;6216105;23;20621;-63
2022/02/02 22:41:02;;;;;;;10.88;2.13;;;3.30;99.90;;;;;;6216363;23;20576;-62
2022/02/02 22:43:32;;;;;;;10.27;1.77;;;3.40;99.90;;;;;;6215926;23;20619;-63